Time;durP1;ratioP1;P1;durP2;ratioP2;P2;SDS_P1;SDS_P2;PMS_P1;PMS_P2;Temp;Humidity;BMP_temperature;BMP_pressure;BME280_temperature;BME280_humidity;BME280_pressure;Samples;Min_cycle;Max_cycle;Signal;HPM_P1;HPM_P2
2024/01/17 00:01:38;;;;;;;1999.90;999.90;;;;;;;;;;5069439;28;20048;-87
2024/01/17 00:04:04;;;;;;;1999.90;999.90;;;;;;;;;;5072369;28;20072;-87
2024/01/17 00:06:32;;;;;;;1999.90;999.90;;;;;;;;;;5075134;28;20044;-87
2024/01/17 00:08:59;;;;;;;1999.90;999.90;;;;;;;;;;5083983;28;20140;-87
2024/01/17 00:11:25;;;;;;;1999.90;999.90;;;;;;;;;;5074144;28;20047;-88
2024/01/17 00:13:52;;;;;;;1999.90;999.90;;;;;;;;;;5072860;28;20397;-89
2024/01/17 00:16:22;;;;;;;1999.90;999.90;;;;;;;;;;5083315;28;20048;-88
2024/01/17 00:18:49;;;;;;;1999.90;999.90;;;;;;;;;;5076993;28;20048;-87
2024/01/17 00:21:15;;;;;;;1999.90;999.90;;;;;;;;;;5075273;28;20054;-86
2024/01/17 00:23:43;;;;;;;1999.90;999.90;;;;;;;;;;5078022;28;20419;-87
2024/01/17 00:26:11;;;;;;;1999.90;999.90;;;;;;;;;;5081285;28;20060;-88
2024/01/17 00:28:37;;;;;;;1999.90;999.90;;;;;;;;;;5080570;28;20496;-88
2024/01/17 00:31:04;;;;;;;1999.90;999.90;;;;;;;;;;5074817;28;20132;-88
2024/01/17 00:33:30;;;;;;;1999.90;999.90;;;;;;;;;;5075825;28;20063;-88
2024/01/17 00:35:57;;;;;;;1999.90;999.90;;;;;;;;;;5082023;28;20547;-87
2024/01/17 00:38:24;;;;;;;1999.90;999.90;;;;;;;;;;5070545;28;20052;-87
2024/01/17 00:40:52;;;;;;;1999.90;999.90;;;;;;;;;;5067691;28;20040;-88
2024/01/17 00:43:18;;;;;;;1999.90;999.90;;;;;;;;;;5070391;28;20047;-87
2024/01/17 00:45:46;;;;;;;1999.90;999.90;;;;;;;;;;5076535;28;20052;-89
2024/01/17 00:48:13;;;;;;;1999.90;999.90;;;;;;;;;;5073370;28;20135;-87
2024/01/17 00:50:40;;;;;;;1999.90;999.90;;;;;;;;;;5078343;28;20044;-87
2024/01/17 00:53:07;;;;;;;1999.90;999.90;;;;;;;;;;5088732;28;20055;-89
2024/01/17 00:55:34;;;;;;;1999.90;999.90;;;;;;;;;;5076044;28;20072;-86
2024/01/17 00:58:02;;;;;;;1999.90;999.90;;;;;;;;;;5078762;28;20052;-91
2024/01/17 01:00:28;;;;;;;1999.90;999.90;;;;;;;;;;5080141;28;20041;-87
2024/01/17 01:02:55;;;;;;;1999.90;999.90;;;;;;;;;;5082656;28;20048;-88
2024/01/17 01:05:22;;;;;;;1999.90;999.90;;;;;;;;;;5081984;28;20059;-86
2024/01/17 01:07:50;;;;;;;1999.90;999.90;;;;;;;;;;5077982;28;20086;-87
2024/01/17 01:10:16;;;;;;;1999.90;999.90;;;;;;;;;;5068876;28;20056;-88
2024/01/17 01:12:43;;;;;;;1999.90;999.90;;;;;;;;;;5075159;28;20459;-88
2024/01/17 01:15:11;;;;;;;1999.90;999.90;;;;;;;;;;5079362;28;20047;-86
2024/01/17 01:17:38;;;;;;;1999.90;999.90;;;;;;;;;;5072621;28;20760;-87
2024/01/17 01:20:11;;;;;;;1999.90;999.90;;;;;;;;;;5070912;28;20049;-87
2024/01/17 01:22:38;;;;;;;1999.90;999.90;;;;;;;;;;5070914;28;20048;-88
2024/01/17 01:25:05;;;;;;;1999.90;999.90;;;;;;;;;;5078382;28;20048;-87
2024/01/17 01:27:32;;;;;;;1999.90;999.90;;;;;;;;;;5073234;28;20060;-89
2024/01/17 01:29:58;;;;;;;1999.90;999.90;;;;;;;;;;5072559;28;20055;-87
2024/01/17 01:32:27;;;;;;;1999.90;999.90;;;;;;;;;;5076322;28;20044;-87
2024/01/17 01:34:54;;;;;;;1999.90;999.90;;;;;;;;;;5070700;28;20048;-87
2024/01/17 01:37:20;;;;;;;1999.90;999.90;;;;;;;;;;5070105;28;20040;-88
2024/01/17 01:39:47;;;;;;;1999.90;999.90;;;;;;;;;;5073799;28;20141;-87
2024/01/17 01:42:14;;;;;;;1999.90;999.90;;;;;;;;;;5075015;28;20476;-86
2024/01/17 01:44:40;;;;;;;1999.90;999.90;;;;;;;;;;5071865;28;20052;-87
2024/01/17 01:47:08;;;;;;;1999.90;999.90;;;;;;;;;;5066311;28;20060;-88
2024/01/17 01:49:37;;;;;;;1999.90;999.90;;;;;;;;;;5070966;28;20040;-86
2024/01/17 01:52:05;;;;;;;1999.90;999.90;;;;;;;;;;5065167;28;20056;-87
2024/01/17 01:54:31;;;;;;;1999.90;999.90;;;;;;;;;;5076267;28;20036;-88
2024/01/17 01:56:59;;;;;;;1999.90;999.90;;;;;;;;;;5069010;28;20053;-86
2024/01/17 01:59:25;;;;;;;1999.90;999.90;;;;;;;;;;5065662;28;20462;-86
2024/01/17 02:01:52;;;;;;;1999.90;999.90;;;;;;;;;;5070024;28;20047;-87
2024/01/17 02:04:19;;;;;;;1999.90;999.90;;;;;;;;;;5070623;28;20052;-86
2024/01/17 02:06:47;;;;;;;1999.90;999.90;;;;;;;;;;5073385;28;20055;-89
2024/01/17 02:09:15;;;;;;;1999.90;999.90;;;;;;;;;;5068646;28;20058;-87
2024/01/17 02:11:42;;;;;;;1999.90;999.90;;;;;;;;;;5076051;28;20036;-89
2024/01/17 02:14:10;;;;;;;1999.90;999.90;;;;;;;;;;5078320;28;20664;-86
2024/01/17 02:16:37;;;;;;;1999.90;999.90;;;;;;;;;;5078827;28;20496;-85
2024/01/17 02:19:07;;;;;;;1999.90;999.90;;;;;;;;;;5074759;28;20053;-87
2024/01/17 02:21:34;;;;;;;1999.90;999.90;;;;;;;;;;5070022;28;20496;-87
2024/01/17 02:24:17;;;;;;;1999.90;999.90;;;;;;;;;;5076319;28;20465;-86
2024/01/17 02:26:43;;;;;;;1999.90;999.90;;;;;;;;;;5085811;28;20044;-86
2024/01/17 02:29:11;;;;;;;1999.90;999.90;;;;;;;;;;5081662;28;20493;-84
2024/01/17 02:31:37;;;;;;;1999.90;999.90;;;;;;;;;;5086574;28;20401;-86
2024/01/17 02:34:04;;;;;;;1999.90;999.90;;;;;;;;;;5079076;28;20057;-87
2024/01/17 02:36:30;;;;;;;1999.90;999.90;;;;;;;;;;5051234;28;20049;-87
2024/01/17 02:38:57;;;;;;;1999.90;999.90;;;;;;;;;;5078085;28;20068;-86
2024/01/17 02:41:25;;;;;;;1999.90;999.90;;;;;;;;;;5070793;28;20055;-87
2024/01/17 02:43:51;;;;;;;1999.90;999.90;;;;;;;;;;5070666;28;20052;-87
2024/01/17 02:46:18;;;;;;;1999.90;999.90;;;;;;;;;;5073260;28;20051;-86
2024/01/17 02:48:57;;;;;;;1999.90;999.90;;;;;;;;;;5077335;28;20052;-86
2024/01/17 02:51:23;;;;;;;1999.90;999.90;;;;;;;;;;5080383;28;20123;-86
2024/01/17 02:53:50;;;;;;;1999.90;999.90;;;;;;;;;;5082502;28;20488;-87
2024/01/17 02:56:17;;;;;;;1999.90;999.90;;;;;;;;;;5086342;28;20488;-86
2024/01/17 02:58:45;;;;;;;1999.90;999.90;;;;;;;;;;5069132;28;20044;-85
2024/01/17 03:01:13;;;;;;;1999.90;999.90;;;;;;;;;;5089424;28;20048;-87
2024/01/17 03:03:40;;;;;;;1999.90;999.90;;;;;;;;;;5080626;28;20538;-85
2024/01/17 03:06:06;;;;;;;1999.90;999.90;;;;;;;;;;5071637;28;20049;-85
2024/01/17 03:08:33;;;;;;;1999.90;999.90;;;;;;;;;;5078718;28;20060;-86
2024/01/17 03:11:00;;;;;;;1999.90;999.90;;;;;;;;;;5085705;28;20051;-85
2024/01/17 03:13:26;;;;;;;1999.90;999.90;;;;;;;;;;5077884;28;20052;-84
2024/01/17 03:15:54;;;;;;;1999.90;999.90;;;;;;;;;;5067501;28;20045;-87
2024/01/17 03:18:21;;;;;;;1999.90;999.90;;;;;;;;;;5072104;28;20485;-83
2024/01/17 03:20:48;;;;;;;1999.90;999.90;;;;;;;;;;5074683;28;20053;-85
2024/01/17 03:23:14;;;;;;;1999.90;999.90;;;;;;;;;;5087445;28;20047;-85
2024/01/17 03:25:41;;;;;;;1999.90;999.90;;;;;;;;;;5077832;28;20048;-84
2024/01/17 03:28:07;;;;;;;1999.90;999.90;;;;;;;;;;5077717;28;20045;-85
2024/01/17 03:30:36;;;;;;;1999.90;999.90;;;;;;;;;;5079195;28;20051;-86
2024/01/17 03:33:04;;;;;;;1999.90;999.90;;;;;;;;;;5080025;28;20055;-85
2024/01/17 03:35:31;;;;;;;1999.90;999.90;;;;;;;;;;5080560;28;20050;-85
2024/01/17 03:37:58;;;;;;;1999.90;999.90;;;;;;;;;;5078018;28;20055;-84
2024/01/17 03:40:24;;;;;;;1999.90;999.90;;;;;;;;;;5075169;28;20522;-85
2024/01/17 03:42:51;;;;;;;1999.90;999.90;;;;;;;;;;5089765;28;20059;-85
2024/01/17 03:45:17;;;;;;;1999.90;999.90;;;;;;;;;;5082727;28;20067;-86
2024/01/17 03:47:44;;;;;;;1999.90;999.90;;;;;;;;;;5075818;28;20052;-85
2024/01/17 03:50:12;;;;;;;1999.90;999.90;;;;;;;;;;5083158;28;20040;-85
2024/01/17 03:52:39;;;;;;;1999.90;999.90;;;;;;;;;;5080732;28;20060;-84
2024/01/17 03:55:06;;;;;;;1999.90;999.90;;;;;;;;;;5074040;28;20481;-85
2024/01/17 03:57:34;;;;;;;1999.90;999.90;;;;;;;;;;5075796;28;20041;-86
2024/01/17 04:00:01;;;;;;;1999.90;999.90;;;;;;;;;;5077596;28;20048;-85
2024/01/17 04:02:27;;;;;;;1999.90;999.90;;;;;;;;;;5072351;28;20059;-85
2024/01/17 04:04:54;;;;;;;1999.90;999.90;;;;;;;;;;5069156;28;20040;-85
2024/01/17 04:07:22;;;;;;;1999.90;999.90;;;;;;;;;;5074095;28;20044;-86
2024/01/17 04:09:49;;;;;;;1999.90;999.90;;;;;;;;;;5073010;28;20054;-85
2024/01/17 04:12:15;;;;;;;1999.90;999.90;;;;;;;;;;5078755;28;20059;-85
2024/01/17 04:14:42;;;;;;;1999.90;999.90;;;;;;;;;;5079356;28;20043;-85
2024/01/17 04:17:10;;;;;;;1999.90;999.90;;;;;;;;;;5080261;28;20053;-85
2024/01/17 04:19:37;;;;;;;1999.90;999.90;;;;;;;;;;5073170;28;20048;-86
2024/01/17 04:22:04;;;;;;;1999.90;999.90;;;;;;;;;;5080784;28;20052;-86
2024/01/17 04:24:31;;;;;;;1999.90;999.90;;;;;;;;;;5074497;28;20059;-87
2024/01/17 04:26:58;;;;;;;1999.90;999.90;;;;;;;;;;5074837;28;20044;-86
2024/01/17 04:29:25;;;;;;;1999.90;999.90;;;;;;;;;;5077344;28;20053;-85
2024/01/17 04:31:52;;;;;;;1999.90;999.90;;;;;;;;;;5081250;28;20048;-86
2024/01/17 04:34:19;;;;;;;1999.90;999.90;;;;;;;;;;5075132;28;20052;-86
2024/01/17 04:36:46;;;;;;;1999.90;999.90;;;;;;;;;;5083623;28;20056;-86
2024/01/17 04:39:14;;;;;;;1999.90;999.90;;;;;;;;;;5071080;28;20072;-87
2024/01/17 04:41:42;;;;;;;1999.90;999.90;;;;;;;;;;5071351;28;20474;-87
2024/01/17 04:44:09;;;;;;;1999.90;999.90;;;;;;;;;;5075057;28;20055;-86
2024/01/17 04:46:37;;;;;;;1999.90;999.90;;;;;;;;;;5084904;28;20113;-90
2024/01/17 04:49:09;;;;;;;1999.90;999.90;;;;;;;;;;5076282;28;20048;-86
2024/01/17 04:51:35;;;;;;;1999.90;999.90;;;;;;;;;;5070616;28;20124;-87
2024/01/17 04:54:02;;;;;;;1999.90;999.90;;;;;;;;;;5071894;28;20477;-87
2024/01/17 04:56:29;;;;;;;1999.90;999.90;;;;;;;;;;5079187;28;20055;-86
2024/01/17 04:58:57;;;;;;;1999.90;999.90;;;;;;;;;;5075602;28;20154;-87
2024/01/17 05:01:23;;;;;;;1999.90;999.90;;;;;;;;;;5071669;28;20059;-88
2024/01/17 05:03:50;;;;;;;1999.90;999.90;;;;;;;;;;5079708;28;20056;-86
2024/01/17 05:06:16;;;;;;;1999.90;999.90;;;;;;;;;;5076748;28;20099;-85
2024/01/17 05:08:43;;;;;;;1999.90;999.90;;;;;;;;;;5078204;28;20052;-87
2024/01/17 05:11:10;;;;;;;1999.90;999.90;;;;;;;;;;5076397;28;20056;-87
2024/01/17 05:13:38;;;;;;;1999.90;999.90;;;;;;;;;;5077264;28;20052;-86
2024/01/17 05:16:05;;;;;;;1999.90;999.90;;;;;;;;;;5071112;28;20048;-85
2024/01/17 05:18:31;;;;;;;1999.90;999.90;;;;;;;;;;5072316;28;20485;-86
2024/01/17 05:20:58;;;;;;;1999.90;999.90;;;;;;;;;;5075740;28;20063;-87
2024/01/17 05:23:25;;;;;;;1999.90;999.90;;;;;;;;;;5077391;28;20052;-89
2024/01/17 05:25:51;;;;;;;1999.90;999.90;;;;;;;;;;5081631;28;20132;-86
2024/01/17 05:28:18;;;;;;;1999.90;999.90;;;;;;;;;;5084070;28;20055;-87
2024/01/17 05:30:45;;;;;;;1999.90;999.90;;;;;;;;;;5085658;28;20131;-86
2024/01/17 05:33:12;;;;;;;1999.90;999.90;;;;;;;;;;5076397;28;20107;-88
2024/01/17 05:35:39;;;;;;;1999.90;999.90;;;;;;;;;;5079807;28;20412;-86
2024/01/17 05:38:06;;;;;;;1999.90;999.90;;;;;;;;;;5070804;28;20044;-87
2024/01/17 05:40:33;;;;;;;1999.90;999.90;;;;;;;;;;5075114;28;20054;-87
2024/01/17 05:43:00;;;;;;;1999.90;999.90;;;;;;;;;;5049757;28;20055;-86
2024/01/17 05:45:26;;;;;;;1999.90;999.90;;;;;;;;;;5079647;28;20090;-86
2024/01/17 05:47:53;;;;;;;1999.90;999.90;;;;;;;;;;5064250;28;20052;-86
2024/01/17 05:50:30;;;;;;;1999.90;999.90;;;;;;;;;;5081463;28;20052;-85
2024/01/17 05:52:57;;;;;;;1999.90;999.90;;;;;;;;;;5074020;28;20270;-87
2024/01/17 05:55:23;;;;;;;1999.90;999.90;;;;;;;;;;5084085;28;20049;-86
2024/01/17 05:57:51;;;;;;;1999.90;999.90;;;;;;;;;;5075898;28;20056;-86
2024/01/17 06:00:19;;;;;;;1999.90;999.90;;;;;;;;;;5076042;28;20089;-87
2024/01/17 06:02:46;;;;;;;1999.90;999.90;;;;;;;;;;5071818;28;20497;-86
2024/01/17 06:05:12;;;;;;;1999.90;999.90;;;;;;;;;;5056965;28;20051;-89
2024/01/17 06:07:40;;;;;;;1999.90;999.90;;;;;;;;;;5062175;28;20051;-87
2024/01/17 06:10:08;;;;;;;1999.90;999.90;;;;;;;;;;5076046;28;20051;-88
2024/01/17 06:12:34;;;;;;;1999.90;999.90;;;;;;;;;;5072401;28;20052;-87
2024/01/17 06:15:12;;;;;;;1999.90;999.90;;;;;;;;;;5073899;28;20048;-86
2024/01/17 06:17:39;;;;;;;1999.90;999.90;;;;;;;;;;5077390;28;20148;-87
2024/01/17 06:20:09;;;;;;;1999.90;999.90;;;;;;;;;;5074360;28;20485;-87
2024/01/17 06:22:36;;;;;;;1999.90;999.90;;;;;;;;;;5067641;28;20052;-87
2024/01/17 06:25:05;;;;;;;1999.90;999.90;;;;;;;;;;5077892;28;20040;-85
2024/01/17 06:27:31;;;;;;;1999.90;999.90;;;;;;;;;;5070496;28;20148;-83
2024/01/17 06:29:58;;;;;;;1999.90;999.90;;;;;;;;;;5073736;28;20059;-86
2024/01/17 06:32:25;;;;;;;1999.90;999.90;;;;;;;;;;5072590;28;20054;-85
2024/01/17 06:34:51;;;;;;;1999.90;999.90;;;;;;;;;;5083588;28;20635;-85
2024/01/17 06:37:18;;;;;;;1999.90;999.90;;;;;;;;;;5080484;28;20040;-87
2024/01/17 06:39:44;;;;;;;1999.90;999.90;;;;;;;;;;5075630;28;20496;-85
2024/01/17 06:42:12;;;;;;;1999.90;999.90;;;;;;;;;;5074436;28;20067;-86
2024/01/17 06:44:40;;;;;;;1999.90;999.90;;;;;;;;;;5074119;28;20127;-84
2024/01/17 06:47:07;;;;;;;1999.90;999.90;;;;;;;;;;5070377;28;20060;-84
2024/01/17 06:49:41;;;;;;;1999.90;999.90;;;;;;;;;;5069833;28;20052;-86
2024/01/17 06:52:07;;;;;;;1999.90;999.90;;;;;;;;;;5076953;28;20084;-86
2024/01/17 06:54:34;;;;;;;1999.90;999.90;;;;;;;;;;5076420;28;20131;-84
2024/01/17 06:57:00;;;;;;;1999.90;999.90;;;;;;;;;;5079951;28;20044;-84
2024/01/17 06:59:28;;;;;;;1999.90;999.90;;;;;;;;;;5086230;28;20040;-86
2024/01/17 07:01:55;;;;;;;1999.90;999.90;;;;;;;;;;5075505;28;20040;-85
2024/01/17 07:04:22;;;;;;;1999.90;999.90;;;;;;;;;;5073498;28;20060;-85
2024/01/17 07:06:48;;;;;;;1999.90;999.90;;;;;;;;;;5062565;28;20055;-87
2024/01/17 07:09:15;;;;;;;1999.90;999.90;;;;;;;;;;5054696;28;20049;-84
2024/01/17 07:11:42;;;;;;;1999.90;999.90;;;;;;;;;;5066916;28;20044;-85
2024/01/17 07:14:09;;;;;;;1999.90;999.90;;;;;;;;;;5060790;28;20049;-85
2024/01/17 07:16:37;;;;;;;1999.90;999.90;;;;;;;;;;5049783;28;20052;-84
2024/01/17 07:19:04;;;;;;;1999.90;999.90;;;;;;;;;;5057245;28;20055;-86
2024/01/17 07:21:30;;;;;;;1999.90;999.90;;;;;;;;;;5067474;28;20047;-85
2024/01/17 07:23:57;;;;;;;1999.90;999.90;;;;;;;;;;5057186;28;20099;-86
2024/01/17 07:26:23;;;;;;;1999.90;999.90;;;;;;;;;;5056898;28;20045;-87
2024/01/17 07:28:50;;;;;;;1999.90;999.90;;;;;;;;;;5048914;28;20044;-87
2024/01/17 07:31:17;;;;;;;1999.90;999.90;;;;;;;;;;5060963;28;20048;-85
2024/01/17 07:33:45;;;;;;;1999.90;999.90;;;;;;;;;;5062227;28;20441;-86
2024/01/17 07:36:11;;;;;;;1999.90;999.90;;;;;;;;;;5062462;28;20059;-88
2024/01/17 07:38:38;;;;;;;1999.90;999.90;;;;;;;;;;5066458;28;20048;-87
2024/01/17 07:41:04;;;;;;;1999.90;999.90;;;;;;;;;;5057849;28;20484;-87
2024/01/17 07:43:31;;;;;;;1999.90;999.90;;;;;;;;;;5058611;28;20477;-86
2024/01/17 07:45:58;;;;;;;1999.90;999.90;;;;;;;;;;5055295;28;20049;-86
2024/01/17 07:48:25;;;;;;;1999.90;999.90;;;;;;;;;;5061007;28;20124;-87
2024/01/17 07:50:59;;;;;;;1999.90;999.90;;;;;;;;;;5062839;28;20056;-89
2024/01/17 07:53:26;;;;;;;1999.90;999.90;;;;;;;;;;5070304;28;20060;-87
2024/01/17 07:55:53;;;;;;;1999.90;999.90;;;;;;;;;;5060075;28;20045;-91
2024/01/17 07:58:20;;;;;;;1999.90;999.90;;;;;;;;;;5056057;28;20040;-87
2024/01/17 08:00:47;;;;;;;1999.90;999.90;;;;;;;;;;5057183;28;20056;-88
2024/01/17 08:03:15;;;;;;;1999.90;999.90;;;;;;;;;;5061286;28;20052;-87
2024/01/17 08:05:42;;;;;;;1999.90;999.90;;;;;;;;;;5079983;28;20055;-86
2024/01/17 08:08:11;;;;;;;1999.90;999.90;;;;;;;;;;5082484;28;20177;-89
2024/01/17 08:10:37;;;;;;;1999.90;999.90;;;;;;;;;;5074852;28;20098;-88
2024/01/17 08:13:04;;;;;;;1999.90;999.90;;;;;;;;;;5091487;28;20048;-88
2024/01/17 08:15:31;;;;;;;1999.90;999.90;;;;;;;;;;5079754;28;20052;-87
2024/01/17 08:17:57;;;;;;;1999.90;999.90;;;;;;;;;;5071094;28;20055;-88
2024/01/17 08:20:24;;;;;;;1999.90;999.90;;;;;;;;;;5061006;28;20045;-89
2024/01/17 08:22:51;;;;;;;1999.90;999.90;;;;;;;;;;5083024;28;20690;-89
2024/01/17 08:25:19;;;;;;;1999.90;999.90;;;;;;;;;;5076059;28;20129;-87
2024/01/17 08:27:45;;;;;;;1999.90;999.90;;;;;;;;;;5078263;28;20049;-86
2024/01/17 08:30:14;;;;;;;1999.90;999.90;;;;;;;;;;5077325;28;20148;-88
2024/01/17 08:32:40;;;;;;;1999.90;999.90;;;;;;;;;;5079359;28;20108;-89
2024/01/17 08:35:08;;;;;;;1999.90;999.90;;;;;;;;;;5090719;28;20419;-89
2024/01/17 08:37:35;;;;;;;1999.90;999.90;;;;;;;;;;5085346;28;20055;-90
2024/01/17 08:40:03;;;;;;;1999.90;999.90;;;;;;;;;;5079652;28;20048;-88
2024/01/17 08:42:30;;;;;;;1999.90;999.90;;;;;;;;;;5092171;28;20167;-90
2024/01/17 08:44:57;;;;;;;1999.90;999.90;;;;;;;;;;5087135;28;20052;-91
2024/01/17 08:47:25;;;;;;;1999.90;999.90;;;;;;;;;;5085942;28;20114;-89
2024/01/17 08:49:53;;;;;;;1999.90;999.90;;;;;;;;;;5079523;28;20055;-90
2024/01/17 08:52:20;;;;;;;1999.90;999.90;;;;;;;;;;5084240;28;20083;-90
2024/01/17 08:57:33;;;;;;;1999.90;999.90;;;;;;;;;;5081397;28;20052;-90
2024/01/17 09:00:05;;;;;;;1999.90;999.90;;;;;;;;;;5100864;28;20050;-89
2024/01/17 09:02:32;;;;;;;1999.90;999.90;;;;;;;;;;5106314;28;20120;-90
2024/01/17 09:05:00;;;;;;;1999.90;999.90;;;;;;;;;;5089619;28;20059;-92
2024/01/17 09:07:27;;;;;;;1999.90;999.90;;;;;;;;;;5069059;28;20051;-89
2024/01/17 09:09:54;;;;;;;1999.90;999.90;;;;;;;;;;5086533;28;20072;-88
2024/01/17 09:12:25;;;;;;;1999.90;999.90;;;;;;;;;;5096533;28;20041;-89
2024/01/17 09:18:07;;;;;;;1999.90;999.90;;;;;;;;;;5092707;28;20032;-91
2024/01/17 09:20:36;;;;;;;1999.90;999.90;;;;;;;;;;5097007;28;20048;-90
2024/01/17 09:25:46;;;;;;;1999.90;999.90;;;;;;;;;;5072728;28;20088;-91
2024/01/17 09:28:15;;;;;;;1999.90;999.90;;;;;;;;;;5093063;28;20052;-91
2024/01/17 09:30:50;;;;;;;1999.90;999.90;;;;;;;;;;5096429;28;20056;-90
2024/01/17 09:33:18;;;;;;;1999.90;999.90;;;;;;;;;;5088618;28;20052;-90
2024/01/17 09:35:45;;;;;;;1999.90;999.90;;;;;;;;;;5084593;28;20048;-90
2024/01/17 09:38:14;;;;;;;1999.90;999.90;;;;;;;;;;5082011;28;20369;-91
2024/01/17 09:40:40;;;;;;;1999.90;999.90;;;;;;;;;;5081570;28;20135;-88
2024/01/17 09:43:08;;;;;;;1999.90;999.90;;;;;;;;;;5081341;28;20139;-88
2024/01/17 09:45:35;;;;;;;1999.90;999.90;;;;;;;;;;5084808;28;20111;-90
2024/01/17 09:48:04;;;;;;;1999.90;999.90;;;;;;;;;;5089361;28;20040;-90
2024/01/17 09:50:32;;;;;;;1999.90;999.90;;;;;;;;;;5083589;28;20044;-90
2024/01/17 09:53:01;;;;;;;1999.90;999.90;;;;;;;;;;5084487;28;20048;-90
2024/01/17 09:55:29;;;;;;;1999.90;999.90;;;;;;;;;;5082523;28;20067;-90
2024/01/17 09:57:57;;;;;;;1999.90;999.90;;;;;;;;;;5081311;28;20087;-91
2024/01/17 10:00:25;;;;;;;1999.90;999.90;;;;;;;;;;5089032;28;20047;-90
2024/01/17 10:02:52;;;;;;;1999.90;999.90;;;;;;;;;;5082160;28;20052;-90
2024/01/17 10:05:21;;;;;;;1999.90;999.90;;;;;;;;;;5075093;28;20519;-88
2024/01/17 10:07:50;;;;;;;1999.90;999.90;;;;;;;;;;5079058;28;20125;-89
2024/01/17 10:10:19;;;;;;;1999.90;999.90;;;;;;;;;;5080335;28;20055;-89
2024/01/17 10:12:47;;;;;;;1999.90;999.90;;;;;;;;;;5083140;28;20044;-89
2024/01/17 10:15:15;;;;;;;1999.90;999.90;;;;;;;;;;5084586;28;20052;-88
2024/01/17 10:17:41;;;;;;;1999.90;999.90;;;;;;;;;;5082480;28;20113;-92
2024/01/17 10:20:13;;;;;;;1999.90;999.90;;;;;;;;;;5090640;28;20060;-90
2024/01/17 10:22:41;;;;;;;1999.90;999.90;;;;;;;;;;5082327;28;20048;-91
2024/01/17 10:25:11;;;;;;;1999.90;999.90;;;;;;;;;;5084347;28;20045;-91
2024/01/17 10:27:38;;;;;;;1999.90;999.90;;;;;;;;;;5092048;28;20049;-90
2024/01/17 10:30:06;;;;;;;1999.90;999.90;;;;;;;;;;5108695;28;20043;-89
2024/01/17 10:32:33;;;;;;;1999.90;999.90;;;;;;;;;;5101969;28;20087;-89
2024/01/17 10:35:00;;;;;;;1999.90;999.90;;;;;;;;;;5102879;28;20056;-90
2024/01/17 10:37:27;;;;;;;1999.90;999.90;;;;;;;;;;5107985;28;20076;-88
2024/01/17 10:40:09;;;;;;;1999.90;999.90;;;;;;;;;;5096480;28;20058;-90
2024/01/17 10:42:37;;;;;;;1999.90;999.90;;;;;;;;;;5095416;28;20048;-89
2024/01/17 10:45:05;;;;;;;1999.90;999.90;;;;;;;;;;5094516;28;20052;-90
2024/01/17 10:47:31;;;;;;;1999.90;999.90;;;;;;;;;;5080047;28;20041;-90
2024/01/17 10:49:58;;;;;;;1999.90;999.90;;;;;;;;;;5080994;28;20049;-89
2024/01/17 10:52:26;;;;;;;1999.90;999.90;;;;;;;;;;5078847;28;20507;-90
2024/01/17 10:55:01;;;;;;;1999.90;999.90;;;;;;;;;;5077328;28;20036;-89
2024/01/17 10:57:29;;;;;;;1999.90;999.90;;;;;;;;;;5082042;28;20041;-88
2024/01/17 10:59:58;;;;;;;1999.90;999.90;;;;;;;;;;5081803;28;20056;-89
2024/01/17 11:02:25;;;;;;;1999.90;999.90;;;;;;;;;;5089958;28;20055;-88
2024/01/17 11:04:57;;;;;;;1999.90;999.90;;;;;;;;;;5081633;28;20070;-89
2024/01/17 11:07:24;;;;;;;1999.90;999.90;;;;;;;;;;5075780;28;20726;-88
2024/01/17 11:09:52;;;;;;;1999.90;999.90;;;;;;;;;;5079964;28;20143;-90
2024/01/17 11:12:19;;;;;;;1999.90;999.90;;;;;;;;;;5080152;28;20078;-89
2024/01/17 11:14:47;;;;;;;1999.90;999.90;;;;;;;;;;5089266;28;20646;-88
2024/01/17 11:17:15;;;;;;;1999.90;999.90;;;;;;;;;;5078868;28;20049;-88
2024/01/17 11:19:44;;;;;;;1999.90;999.90;;;;;;;;;;5075317;28;20408;-88
2024/01/17 11:22:12;;;;;;;1999.90;999.90;;;;;;;;;;5073630;28;20052;-88
2024/01/17 11:24:45;;;;;;;1999.90;999.90;;;;;;;;;;5077149;28;20045;-88
2024/01/17 11:27:17;;;;;;;1999.90;999.90;;;;;;;;;;5081680;28;20051;-88
2024/01/17 11:29:51;;;;;;;1999.90;999.90;;;;;;;;;;5077203;28;20048;-88
2024/01/17 11:32:23;;;;;;;1999.90;999.90;;;;;;;;;;5079043;28;20059;-87
2024/01/17 11:34:50;;;;;;;1999.90;999.90;;;;;;;;;;5081143;28;20048;-88
2024/01/17 11:37:28;;;;;;;1999.90;999.90;;;;;;;;;;5079938;28;20055;-86
2024/01/17 11:39:55;;;;;;;1999.90;999.90;;;;;;;;;;5076047;28;20143;-87
2024/01/17 11:42:22;;;;;;;1999.90;999.90;;;;;;;;;;5078210;28;20425;-86
2024/01/17 11:44:49;;;;;;;1999.90;999.90;;;;;;;;;;5082061;28;20056;-87
2024/01/17 11:47:21;;;;;;;1999.90;999.90;;;;;;;;;;5076204;28;20044;-88
2024/01/17 11:49:48;;;;;;;1999.90;999.90;;;;;;;;;;5082043;28;20048;-87
2024/01/17 11:52:30;;;;;;;1999.90;999.90;;;;;;;;;;5080213;28;20479;-88
2024/01/17 11:54:57;;;;;;;1999.90;999.90;;;;;;;;;;5082613;28;20043;-87
2024/01/17 11:57:25;;;;;;;1999.90;999.90;;;;;;;;;;5072155;28;20098;-88
2024/01/17 12:00:05;;;;;;;1999.90;999.90;;;;;;;;;;5083018;28;20051;-87
2024/01/17 12:02:36;;;;;;;1999.90;999.90;;;;;;;;;;5079119;28;20040;-88
2024/01/17 12:05:04;;;;;;;1999.90;999.90;;;;;;;;;;5074240;28;20145;-88
2024/01/17 12:07:31;;;;;;;1999.90;999.90;;;;;;;;;;5076751;28;20044;-88
2024/01/17 12:09:57;;;;;;;1999.90;999.90;;;;;;;;;;5078013;28;20412;-88
2024/01/17 12:12:24;;;;;;;1999.90;999.90;;;;;;;;;;5079039;28;20045;-87
2024/01/17 12:14:51;;;;;;;1999.90;999.90;;;;;;;;;;5078186;28;20086;-87
2024/01/17 12:17:17;;;;;;;1999.90;999.90;;;;;;;;;;5084098;28;20055;-87
2024/01/17 12:19:46;;;;;;;1999.90;999.90;;;;;;;;;;5078816;28;20055;-87
2024/01/17 12:22:12;;;;;;;1999.90;999.90;;;;;;;;;;5080385;28;20051;-88
2024/01/17 12:24:39;;;;;;;1999.90;999.90;;;;;;;;;;5071851;28;20060;-88
2024/01/17 12:27:07;;;;;;;1999.90;999.90;;;;;;;;;;5079576;28;20048;-88
2024/01/17 12:29:33;;;;;;;1999.90;999.90;;;;;;;;;;5085962;28;20051;-89
2024/01/17 12:32:00;;;;;;;1999.90;999.90;;;;;;;;;;5080708;28;20048;-87
2024/01/17 12:34:26;;;;;;;1999.90;999.90;;;;;;;;;;5076458;28;20044;-88
2024/01/17 12:36:54;;;;;;;1999.90;999.90;;;;;;;;;;5078226;28;20044;-88
2024/01/17 12:39:22;;;;;;;1999.90;999.90;;;;;;;;;;5084860;28;20044;-87
2024/01/17 12:41:55;;;;;;;1999.90;999.90;;;;;;;;;;5077835;28;20079;-88
2024/01/17 12:44:22;;;;;;;1999.90;999.90;;;;;;;;;;5073891;28;20051;-88
2024/01/17 12:46:48;;;;;;;1999.90;999.90;;;;;;;;;;5074483;28;20048;-88
2024/01/17 12:49:15;;;;;;;1999.90;999.90;;;;;;;;;;5075915;28;20056;-88
2024/01/17 12:51:41;;;;;;;1999.90;999.90;;;;;;;;;;5078482;28;20045;-88
2024/01/17 12:54:09;;;;;;;1999.90;999.90;;;;;;;;;;5073842;28;20049;-88
2024/01/17 12:56:36;;;;;;;1999.90;999.90;;;;;;;;;;5064564;28;20056;-88
2024/01/17 12:59:04;;;;;;;1999.90;999.90;;;;;;;;;;5066388;28;20051;-88
2024/01/17 13:01:31;;;;;;;1999.90;999.90;;;;;;;;;;5078078;28;20083;-87
2024/01/17 13:04:01;;;;;;;1999.90;999.90;;;;;;;;;;5068250;28;20059;-87
2024/01/17 13:06:28;;;;;;;1999.90;999.90;;;;;;;;;;5084740;28;20513;-88
2024/01/17 13:08:55;;;;;;;1999.90;999.90;;;;;;;;;;5079504;28;20098;-87
2024/01/17 13:11:24;;;;;;;1999.90;999.90;;;;;;;;;;5077526;28;20084;-87
2024/01/17 13:13:59;;;;;;;1999.90;999.90;;;;;;;;;;5074513;28;20124;-87
2024/01/17 13:16:30;;;;;;;1999.90;999.90;;;;;;;;;;5070945;28;20045;-87
2024/01/17 13:18:58;;;;;;;1999.90;999.90;;;;;;;;;;5080748;28;20076;-88
2024/01/17 13:21:24;;;;;;;1999.90;999.90;;;;;;;;;;5078253;28;20045;-87
2024/01/17 13:23:51;;;;;;;1999.90;999.90;;;;;;;;;;5078373;28;20062;-87
2024/01/17 13:26:17;;;;;;;1999.90;999.90;;;;;;;;;;5078285;28;20052;-88
2024/01/17 13:28:45;;;;;;;1999.90;999.90;;;;;;;;;;5068999;28;20071;-86
2024/01/17 13:31:12;;;;;;;1999.90;999.90;;;;;;;;;;5073712;28;20055;-86
2024/01/17 13:33:39;;;;;;;1999.90;999.90;;;;;;;;;;5071565;28;20079;-88
2024/01/17 13:36:06;;;;;;;1999.90;999.90;;;;;;;;;;5076736;28;20044;-87
2024/01/17 13:38:33;;;;;;;1999.90;999.90;;;;;;;;;;5077751;28;20045;-86
2024/01/17 13:41:00;;;;;;;1999.90;999.90;;;;;;;;;;5076761;28;20048;-86
2024/01/17 13:43:27;;;;;;;1999.90;999.90;;;;;;;;;;5082154;28;20044;-87
2024/01/17 13:45:55;;;;;;;1999.90;999.90;;;;;;;;;;5087154;28;20095;-87
2024/01/17 13:48:22;;;;;;;1999.90;999.90;;;;;;;;;;5086782;28;20044;-89
2024/01/17 13:50:48;;;;;;;1999.90;999.90;;;;;;;;;;5078302;28;20055;-87
2024/01/17 13:53:31;;;;;;;1999.90;999.90;;;;;;;;;;5078302;28;20054;-88